Time;durP1;ratioP1;P1;durP2;ratioP2;P2;SDS_P1;SDS_P2;PMS_P1;PMS_P2;Temp;Humidity;BMP_temperature;BMP_pressure;BME280_temperature;BME280_humidity;BME280_pressure;Samples;Min_cycle;Max_cycle;Signal;HPM_P1;HPM_P2
2023/08/14 00:02:02;;;;;;;3.75;1.73;;;26.00;77.70;;;;;;2312568;55;20963;-72
2023/08/14 00:04:28;;;;;;;3.83;1.70;;;26.00;77.70;;;;;;2312956;55;20975;-70
2023/08/14 00:06:54;;;;;;;3.22;1.65;;;26.00;77.70;;;;;;2551900;54;20963;-71
2023/08/14 00:09:21;;;;;;;3.65;1.87;;;26.00;77.60;;;;;;2551492;54;21585;-72
2023/08/14 00:11:47;;;;;;;5.05;2.10;;;26.00;77.70;;;;;;2552311;54;21051;-72
2023/08/14 00:14:14;;;;;;;3.17;1.50;;;26.00;77.70;;;;;;2298194;55;21019;-72
2023/08/14 00:16:40;;;;;;;2.87;1.80;;;26.00;77.80;;;;;;2543329;54;21115;-70
2023/08/14 00:19:06;;;;;;;3.30;1.60;;;26.00;77.80;;;;;;2541179;54;21056;-72
2023/08/14 00:21:33;;;;;;;2.22;1.20;;;26.00;77.90;;;;;;2533272;54;20959;-70
2023/08/14 00:24:02;;;;;;;2.40;1.25;;;26.00;77.90;;;;;;2552657;54;21118;-70
2023/08/14 00:26:29;;;;;;;3.03;1.37;;;26.00;77.60;;;;;;2553120;54;20983;-71
2023/08/14 00:28:56;;;;;;;2.53;1.23;;;26.00;77.80;;;;;;2552703;54;21025;-70
2023/08/14 00:31:23;;;;;;;3.08;1.62;;;26.00;77.80;;;;;;2310196;55;21605;-72
2023/08/14 00:33:50;;;;;;;3.47;1.40;;;26.00;77.80;;;;;;2292966;56;21720;-71
2023/08/14 00:36:17;;;;;;;3.30;1.52;;;26.00;77.80;;;;;;2291064;56;20993;-71
2023/08/14 00:38:43;;;;;;;3.37;1.55;;;26.00;77.80;;;;;;2550515;54;21447;-70
2023/08/14 00:41:10;;;;;;;2.47;1.10;;;26.00;77.70;;;;;;2293092;55;21930;-70
2023/08/14 00:43:36;;;;;;;2.30;1.23;;;26.00;77.60;;;;;;2285423;56;21863;-71
2023/08/14 00:46:02;;;;;;;2.62;1.35;;;26.00;77.60;;;;;;2312394;55;20948;-69
2023/08/14 00:48:29;;;;;;;3.28;1.52;;;26.00;77.70;;;;;;2308179;55;20960;-71
2023/08/14 00:50:55;;;;;;;2.42;1.30;;;26.00;77.70;;;;;;2529532;54;20943;-71
2023/08/14 00:53:24;;;;;;;2.65;1.08;;;26.00;77.70;;;;;;2286356;56;20988;-70
2023/08/14 00:55:50;;;;;;;3.25;1.37;;;26.00;77.70;;;;;;2289337;55;21503;-71
2023/08/14 00:58:17;;;;;;;2.60;1.10;;;26.00;77.80;;;;;;2312991;55;20983;-69
2023/08/14 01:00:44;;;;;;;3.28;1.50;;;26.00;77.80;;;;;;2304687;55;21008;-71
2023/08/14 01:03:10;;;;;;;2.55;1.10;;;26.00;77.90;;;;;;2279534;56;21793;-69
2023/08/14 01:05:38;;;;;;;2.42;1.27;;;26.00;77.90;;;;;;2313321;54;1799818;-69
2023/08/14 01:08:04;;;;;;;2.50;1.08;;;26.00;77.80;;;;;;2312769;55;20957;-71
2023/08/14 01:10:54;;;;;;;3.80;1.20;;;26.00;78.00;;;;;;2552918;54;21011;-71
2023/08/14 01:13:37;;;;;;;2.92;1.35;;;26.00;77.60;;;;;;2290873;55;21031;-70
2023/08/14 01:16:06;;;;;;;2.60;1.30;;;26.00;77.50;;;;;;2552780;54;21077;-72
2023/08/14 01:18:33;;;;;;;3.37;1.20;;;26.00;77.90;;;;;;2552782;54;21011;-71
2023/08/14 01:22:44;;;;;;;2.35;1.30;;;26.00;78.00;;;;;;2550598;54;20943;-70
2023/08/14 01:25:33;;;;;;;1.98;1.05;;;25.90;77.00;;;;;;2311158;55;21545;-71
2023/08/14 01:28:00;;;;;;;2.33;1.10;;;26.00;76.90;;;;;;2312909;55;20987;-70
2023/08/14 01:30:27;;;;;;;3.62;1.50;;;25.90;77.80;;;;;;2313366;55;20935;-70
2023/08/14 01:32:55;;;;;;;2.28;1.23;;;25.90;77.80;;;;;;2552147;54;21397;-71
2023/08/14 01:35:26;;;;;;;2.95;1.33;;;25.90;77.80;;;;;;2552691;54;21138;-70
2023/08/14 01:38:19;;;;;;;3.45;1.35;;;25.90;77.70;;;;;;2312936;55;21839;-70
2023/08/14 01:41:06;;;;;;;2.45;1.23;;;25.90;76.90;;;;;;2312505;55;21745;-70
2023/08/14 01:43:36;;;;;;;2.97;1.20;;;25.90;77.10;;;;;;2552316;54;20990;-70
2023/08/14 01:46:03;;;;;;;3.05;1.35;;;25.80;77.60;;;;;;2552430;54;21821;-70
2023/08/14 01:48:29;;;;;;;2.65;1.50;;;25.80;77.70;;;;;;2312704;55;20935;-72
2023/08/14 01:50:56;;;;;;;1.92;1.00;;;25.80;77.70;;;;;;2312598;55;20932;-71
2023/08/14 01:53:22;;;;;;;2.20;1.20;;;25.80;77.80;;;;;;2313363;55;20979;-68
2023/08/14 01:55:49;;;;;;;2.50;1.27;;;25.80;77.70;;;;;;2312729;55;20936;-71
2023/08/14 01:58:16;;;;;;;2.20;1.12;;;25.80;77.70;;;;;;2552807;54;20966;-71
2023/08/14 02:00:44;;;;;;;2.55;1.20;;;25.70;77.70;;;;;;2551772;54;21070;-72
2023/08/14 02:03:11;;;;;;;2.70;1.30;;;25.70;77.70;;;;;;2312869;55;20971;-70
2023/08/14 02:05:38;;;;;;;2.72;1.30;;;25.70;77.70;;;;;;2552610;54;20935;-71
2023/08/14 02:08:05;;;;;;;1.92;1.08;;;25.70;77.70;;;;;;2552790;54;21012;-71
2023/08/14 02:10:35;;;;;;;2.85;1.17;;;25.60;77.60;;;;;;2313236;55;21050;-70
2023/08/14 02:13:02;;;;;;;2.10;0.90;;;25.70;77.70;;;;;;2313349;55;21381;-71
2023/08/14 02:15:30;;;;;;;2.33;1.00;;;25.70;77.60;;;;;;2312878;55;21055;-71
2023/08/14 02:17:57;;;;;;;2.55;0.95;;;25.60;77.50;;;;;;2312697;55;20952;-72
2023/08/14 02:20:28;;;;;;;2.30;1.00;;;25.60;77.50;;;;;;2553052;54;21023;-70
2023/08/14 02:22:55;;;;;;;2.50;1.10;;;25.60;77.30;;;;;;2546784;54;20994;-71
2023/08/14 02:25:21;;;;;;;1.90;0.90;;;25.50;77.50;;;;;;2293051;55;20923;-71
2023/08/14 02:27:48;;;;;;;1.95;0.80;;;25.50;77.50;;;;;;2552126;54;20975;-72
2023/08/14 02:30:14;;;;;;;1.58;0.80;;;25.50;77.40;;;;;;2553105;54;21092;-70
2023/08/14 02:32:40;;;;;;;2.65;1.00;;;25.50;77.40;;;;;;2520083;54;21288;-71
2023/08/14 02:35:07;;;;;;;2.67;1.00;;;25.50;77.30;;;;;;2311213;55;20955;-72
2023/08/14 02:37:33;;;;;;;2.05;0.90;;;25.40;77.20;;;;;;2552770;54;21027;-72
2023/08/14 02:40:00;;;;;;;3.67;0.80;;;25.40;77.10;;;;;;2312420;55;20932;-72
2023/08/14 02:42:27;;;;;;;2.00;0.90;;;25.40;77.10;;;;;;2313414;55;20928;-70
2023/08/14 02:44:54;;;;;;;2.65;1.08;;;25.30;77.10;;;;;;2552799;54;22340;-71
2023/08/14 02:47:20;;;;;;;2.60;0.90;;;25.30;77.10;;;;;;2552782;54;21618;-71
2023/08/14 02:49:50;;;;;;;2.17;1.00;;;25.30;77.20;;;;;;2312432;55;20959;-69
2023/08/14 02:52:16;;;;;;;2.25;1.42;;;25.20;77.00;;;;;;2312990;55;20988;-70
2023/08/14 02:54:42;;;;;;;2.10;0.80;;;25.20;77.20;;;;;;2552795;54;21440;-71
2023/08/14 02:57:09;;;;;;;2.10;0.80;;;25.20;77.30;;;;;;2313092;55;22113;-71
2023/08/14 02:59:41;;;;;;;1.83;0.88;;;25.10;77.20;;;;;;2552916;54;20972;-70
2023/08/14 03:02:07;;;;;;;2.05;0.88;;;25.20;77.20;;;;;;2553092;54;20953;-68
2023/08/14 03:04:33;;;;;;;1.95;0.90;;;25.10;77.30;;;;;;2552669;54;20995;-72
2023/08/14 03:07:00;;;;;;;2.47;1.00;;;25.10;77.40;;;;;;2552797;54;20956;-71
2023/08/14 03:09:26;;;;;;;2.20;1.08;;;25.10;77.50;;;;;;2313585;55;20916;-71
2023/08/14 03:11:53;;;;;;;2.05;0.93;;;25.10;77.60;;;;;;2551475;54;20971;-72
2023/08/14 03:14:19;;;;;;;2.65;1.00;;;25.00;77.50;;;;;;2312437;55;21417;-70
2023/08/14 03:16:45;;;;;;;2.53;1.17;;;25.00;77.50;;;;;;2551092;54;21503;-70
2023/08/14 03:19:12;;;;;;;1.98;0.95;;;25.00;77.50;;;;;;2552905;54;21442;-72
2023/08/14 03:21:41;;;;;;;1.75;0.95;;;25.00;77.50;;;;;;2289844;55;21026;-71
2023/08/14 03:24:07;;;;;;;2.17;1.08;;;25.00;77.50;;;;;;2543812;54;21025;-70
2023/08/14 03:26:34;;;;;;;2.30;1.10;;;25.00;77.50;;;;;;2530015;54;20967;-70
2023/08/14 03:29:00;;;;;;;2.90;1.30;;;24.90;77.50;;;;;;2552664;54;20936;-70
2023/08/14 03:31:27;;;;;;;2.40;1.10;;;24.90;77.50;;;;;;2305037;55;21033;-71
2023/08/14 03:33:53;;;;;;;2.65;1.00;;;24.90;77.50;;;;;;2534152;54;21050;-71
2023/08/14 03:36:19;;;;;;;3.17;1.10;;;24.90;77.60;;;;;;2313003;55;21706;-71
2023/08/14 03:38:46;;;;;;;2.55;1.00;;;24.90;77.70;;;;;;2520071;54;20948;-71
2023/08/14 03:41:13;;;;;;;2.05;1.08;;;24.80;77.70;;;;;;2313611;55;21610;-72
2023/08/14 03:43:39;;;;;;;3.03;1.10;;;24.80;77.70;;;;;;2552159;54;20943;-71
2023/08/14 03:46:05;;;;;;;2.17;1.00;;;24.80;77.80;;;;;;2544870;54;21509;-70
2023/08/14 03:48:32;;;;;;;2.62;1.00;;;24.80;77.90;;;;;;2284891;55;21846;-72
2023/08/14 03:51:01;;;;;;;2.37;0.90;;;24.80;78.00;;;;;;2543263;54;21539;-71
2023/08/14 03:53:28;;;;;;;2.42;1.00;;;24.80;77.90;;;;;;2552732;54;21272;-71
2023/08/14 03:55:56;;;;;;;2.17;1.10;;;24.80;77.90;;;;;;2312579;55;21135;-71
2023/08/14 03:58:22;;;;;;;2.60;1.00;;;24.80;78.00;;;;;;2552549;54;21010;-72
2023/08/14 04:00:49;;;;;;;1.40;0.68;;;24.80;78.00;;;;;;2312630;55;21003;-71
2023/08/14 04:03:16;;;;;;;3.20;1.10;;;24.80;78.10;;;;;;2553424;54;21088;-71
2023/08/14 04:05:42;;;;;;;2.97;0.90;;;24.80;78.10;;;;;;2552332;54;21749;-72
2023/08/14 04:08:08;;;;;;;2.12;0.85;;;24.80;78.10;;;;;;2552787;54;20967;-72
2023/08/14 04:10:38;;;;;;;2.30;1.10;;;24.80;78.10;;;;;;2553372;54;21445;-70
2023/08/14 04:13:05;;;;;;;3.47;1.00;;;24.80;78.00;;;;;;2290917;55;21070;-70
2023/08/14 04:15:31;;;;;;;2.50;1.10;;;24.80;78.00;;;;;;2298106;55;20948;-70
2023/08/14 04:17:58;;;;;;;2.55;1.37;;;24.80;78.10;;;;;;2542615;54;21840;-71
2023/08/14 04:20:24;;;;;;;2.45;1.17;;;24.80;78.00;;;;;;2313868;55;20984;-72
2023/08/14 04:22:55;;;;;;;2.55;1.20;;;24.70;78.00;;;;;;2552168;54;20931;-71
2023/08/14 04:25:24;;;;;;;2.55;1.15;;;24.70;78.10;;;;;;2550269;54;20948;-70
2023/08/14 04:27:51;;;;;;;2.30;1.05;;;24.70;78.20;;;;;;2523046;54;20928;-72
2023/08/14 04:30:19;;;;;;;2.50;1.10;;;24.70;78.20;;;;;;2313958;55;21543;-71
2023/08/14 04:32:46;;;;;;;2.25;1.10;;;24.70;78.30;;;;;;2312761;55;20944;-70
2023/08/14 04:35:12;;;;;;;2.83;1.00;;;24.70;78.40;;;;;;2552561;54;20928;-71
2023/08/14 04:37:38;;;;;;;2.58;1.30;;;24.70;78.50;;;;;;2290978;55;21460;-71
2023/08/14 04:40:09;;;;;;;3.05;1.27;;;24.70;78.50;;;;;;2552514;54;21004;-71
2023/08/14 04:42:35;;;;;;;3.17;1.30;;;24.80;78.60;;;;;;2282855;55;21052;-70
2023/08/14 04:45:03;;;;;;;2.20;1.10;;;24.80;78.70;;;;;;2288911;55;20924;-71
2023/08/14 04:47:29;;;;;;;3.50;1.15;;;24.80;78.70;;;;;;2312530;55;21023;-72
2023/08/14 04:49:56;;;;;;;2.65;1.27;;;24.80;78.70;;;;;;2552138;54;21027;-72
2023/08/14 04:52:22;;;;;;;2.60;1.02;;;24.80;78.50;;;;;;2552783;54;20967;-71
2023/08/14 04:54:49;;;;;;;2.10;1.08;;;24.80;78.40;;;;;;2551574;54;20975;-71
2023/08/14 04:57:15;;;;;;;2.00;0.98;;;24.80;78.40;;;;;;2544726;54;20973;-71
2023/08/14 04:59:42;;;;;;;3.28;1.37;;;24.70;78.30;;;;;;2293124;55;21759;-69
2023/08/14 05:02:08;;;;;;;2.10;0.93;;;24.70;78.40;;;;;;2313330;55;21015;-71
2023/08/14 05:04:35;;;;;;;1.98;1.00;;;24.70;78.50;;;;;;2553412;54;21027;-71
2023/08/14 05:07:04;;;;;;;2.47;1.30;;;24.70;78.60;;;;;;2312114;55;21817;-71
2023/08/14 05:09:31;;;;;;;3.00;1.40;;;24.70;78.70;;;;;;2312259;55;20988;-71
2023/08/14 05:12:00;;;;;;;2.25;1.10;;;24.80;78.80;;;;;;2312702;55;20931;-71
2023/08/14 05:14:27;;;;;;;2.53;1.10;;;24.80;78.90;;;;;;2312922;55;20963;-71
2023/08/14 05:16:53;;;;;;;2.10;1.08;;;24.80;79.00;;;;;;2312598;55;20984;-71
2023/08/14 05:19:20;;;;;;;2.50;1.20;;;24.80;79.00;;;;;;2312514;55;20951;-70
2023/08/14 05:21:46;;;;;;;2.70;1.10;;;24.80;78.90;;;;;;2311669;55;20911;-71
2023/08/14 05:24:14;;;;;;;2.12;1.10;;;24.80;78.70;;;;;;2553190;54;20983;-72
2023/08/14 05:26:41;;;;;;;2.55;1.15;;;24.80;78.70;;;;;;2552595;54;21019;-72
2023/08/14 05:29:08;;;;;;;2.37;1.08;;;24.80;78.80;;;;;;2552396;54;21848;-71
2023/08/14 05:31:34;;;;;;;3.28;1.23;;;24.80;78.80;;;;;;2552715;54;21094;-71
2023/08/14 05:34:01;;;;;;;2.95;1.10;;;24.80;78.70;;;;;;2312606;55;20987;-70
2023/08/14 05:36:27;;;;;;;2.90;1.08;;;24.80;78.70;;;;;;2552902;54;21532;-72
2023/08/14 05:38:54;;;;;;;2.62;1.02;;;24.80;78.70;;;;;;2312691;55;21019;-70
2023/08/14 05:41:21;;;;;;;2.50;1.30;;;24.80;78.80;;;;;;2312619;55;20936;-70
2023/08/14 05:43:48;;;;;;;2.58;1.15;;;24.80;78.80;;;;;;2545990;54;21898;-71
2023/08/14 05:46:16;;;;;;;3.05;1.37;;;24.90;78.90;;;;;;2293289;56;21023;-70
2023/08/14 05:48:43;;;;;;;2.42;1.40;;;24.90;78.90;;;;;;2313340;55;20951;-71
2023/08/14 05:51:09;;;;;;;2.50;1.30;;;24.90;78.90;;;;;;2312924;55;21563;-68
2023/08/14 05:53:36;;;;;;;2.87;1.37;;;24.90;79.00;;;;;;2553661;54;20999;-70
2023/08/14 05:56:02;;;;;;;2.70;1.20;;;24.90;79.10;;;;;;2551464;54;21408;-71
2023/08/14 05:58:28;;;;;;;3.37;1.08;;;24.90;79.10;;;;;;2553092;54;21414;-70
2023/08/14 06:00:55;;;;;;;2.47;1.23;;;24.90;79.10;;;;;;2312928;55;21460;-70
2023/08/14 06:03:21;;;;;;;3.83;1.10;;;24.90;79.10;;;;;;2553181;54;20956;-69
2023/08/14 06:05:55;;;;;;;2.20;1.08;;;25.00;79.10;;;;;;2552715;54;20987;-71
2023/08/14 06:08:24;;;;;;;3.78;1.10;;;24.90;79.00;;;;;;2313932;55;20947;-70
2023/08/14 06:10:53;;;;;;;2.70;1.30;;;25.00;78.90;;;;;;2553189;54;20971;-71
2023/08/14 06:13:19;;;;;;;2.40;1.00;;;25.00;78.90;;;;;;2313220;55;21086;-70
2023/08/14 06:15:46;;;;;;;3.50;1.50;;;25.00;79.10;;;;;;2313535;55;20955;-71
2023/08/14 06:18:13;;;;;;;2.30;1.35;;;25.00;79.20;;;;;;2312986;55;21790;-70
2023/08/14 06:20:40;;;;;;;2.35;1.10;;;25.00;79.20;;;;;;2307396;55;21095;-70
2023/08/14 06:23:07;;;;;;;3.03;1.05;;;25.00;79.20;;;;;;2534409;54;21019;-71
2023/08/14 06:25:34;;;;;;;2.10;1.12;;;25.00;79.20;;;;;;2542482;54;21033;-71
2023/08/14 06:28:02;;;;;;;3.12;1.30;;;25.00;79.20;;;;;;2531900;54;20923;-71
2023/08/14 06:30:29;;;;;;;2.20;1.17;;;25.10;79.30;;;;;;2553409;54;20951;-71
2023/08/14 06:32:55;;;;;;;2.62;1.33;;;25.10;79.30;;;;;;2552882;54;20951;-70
2023/08/14 06:35:22;;;;;;;2.83;1.40;;;25.10;79.40;;;;;;2313294;55;20928;-71
2023/08/14 06:37:48;;;;;;;3.47;1.10;;;25.10;79.40;;;;;;2548399;54;20991;-70
2023/08/14 06:40:14;;;;;;;3.92;1.30;;;25.10;79.50;;;;;;2313487;55;20989;-72
2023/08/14 06:42:41;;;;;;;2.22;0.90;;;25.20;79.70;;;;;;2312995;55;21943;-71
2023/08/14 06:45:08;;;;;;;2.87;1.50;;;25.20;79.80;;;;;;2312985;55;20948;-70
2023/08/14 06:47:42;;;;;;;2.55;1.20;;;25.20;79.90;;;;;;2313898;55;21035;-71
2023/08/14 06:50:08;;;;;;;1.92;0.95;;;25.30;79.60;;;;;;2552908;54;21033;-71
2023/08/14 06:52:35;;;;;;;2.55;1.23;;;25.30;80.00;;;;;;2548527;54;21373;-71
2023/08/14 06:55:04;;;;;;;2.42;1.10;;;25.30;80.00;;;;;;2552857;54;21473;-70
2023/08/14 06:57:31;;;;;;;2.30;1.10;;;25.40;80.10;;;;;;2314037;55;20991;-70
2023/08/14 06:59:57;;;;;;;5.20;1.30;;;25.40;80.10;;;;;;2288060;55;21453;-71
2023/08/14 07:02:24;;;;;;;2.33;1.23;;;25.50;80.10;;;;;;2297195;55;20933;-71
2023/08/14 07:04:51;;;;;;;2.62;1.10;;;25.50;80.10;;;;;;2546078;54;20959;-71
2023/08/14 07:07:19;;;;;;;2.58;1.25;;;25.50;80.10;;;;;;2552692;54;20922;-73
2023/08/14 07:09:45;;;;;;;3.25;1.50;;;25.50;80.00;;;;;;2553275;54;20986;-72
2023/08/14 07:12:15;;;;;;;2.72;1.58;;;25.60;80.20;;;;;;2552736;54;21045;-71
2023/08/14 07:14:42;;;;;;;2.83;1.65;;;25.70;80.30;;;;;;2312947;55;20987;-70
2023/08/14 07:17:10;;;;;;;2.70;1.40;;;25.70;80.30;;;;;;2552617;54;21302;-70
2023/08/14 07:19:37;;;;;;;2.35;1.20;;;25.70;80.30;;;;;;2549483;54;21023;-72
2023/08/14 07:22:04;;;;;;;2.67;1.17;;;25.70;80.20;;;;;;2524007;54;20916;-71
2023/08/14 07:24:31;;;;;;;2.90;1.33;;;25.80;80.30;;;;;;2313259;55;20959;-72
2023/08/14 07:26:57;;;;;;;3.92;1.45;;;25.90;80.30;;;;;;2552761;54;21795;-71
2023/08/14 07:29:25;;;;;;;2.65;1.27;;;25.90;80.30;;;;;;2312946;55;20955;-72
2023/08/14 07:31:51;;;;;;;3.00;1.35;;;26.00;80.40;;;;;;2313625;55;21739;-70
2023/08/14 07:34:17;;;;;;;3.08;1.50;;;26.00;80.40;;;;;;2313263;55;20920;-72
2023/08/14 07:36:44;;;;;;;2.35;1.30;;;26.10;80.50;;;;;;2553379;54;20980;-70
2023/08/14 07:39:11;;;;;;;2.85;1.00;;;26.10;80.40;;;;;;2312750;55;21465;-70
2023/08/14 07:41:38;;;;;;;3.40;1.40;;;26.20;80.40;;;;;;2313415;55;21848;-72
2023/08/14 07:44:04;;;;;;;1.98;1.15;;;26.30;80.40;;;;;;2312624;55;20947;-72
2023/08/14 07:46:31;;;;;;;2.75;1.20;;;26.30;80.30;;;;;;2312960;55;20963;-71
2023/08/14 07:48:57;;;;;;;3.45;1.50;;;26.30;80.30;;;;;;2552896;54;20928;-70
2023/08/14 07:51:24;;;;;;;2.35;1.20;;;26.40;80.30;;;;;;2552775;54;20987;-71
2023/08/14 07:53:53;;;;;;;3.28;1.40;;;26.50;80.30;;;;;;2553143;54;20919;-70
2023/08/14 07:56:19;;;;;;;2.80;1.40;;;26.50;80.30;;;;;;2547678;54;21025;-73
2023/08/14 07:58:46;;;;;;;3.30;1.60;;;26.60;80.20;;;;;;2292903;55;21015;-71
2023/08/14 08:01:13;;;;;;;2.70;1.40;;;26.60;80.10;;;;;;2313133;55;20907;-72
2023/08/14 08:03:39;;;;;;;2.65;1.50;;;26.70;80.10;;;;;;2549318;54;20979;-73
2023/08/14 08:06:07;;;;;;;2.22;1.30;;;26.70;80.00;;;;;;2524513;54;21015;-73
2023/08/14 08:08:36;;;;;;;2.97;1.40;;;26.80;80.00;;;;;;2553589;54;20915;-72
2023/08/14 08:11:02;;;;;;;3.42;1.30;;;26.80;79.90;;;;;;2553354;54;20932;-72
2023/08/14 08:13:29;;;;;;;3.20;1.70;;;26.90;79.90;;;;;;2313279;55;20963;-72
2023/08/14 08:15:55;;;;;;;3.40;1.52;;;26.90;79.80;;;;;;2313604;55;21011;-72
2023/08/14 08:18:21;;;;;;;3.25;1.80;;;27.00;79.70;;;;;;2495564;55;21036;-72
2023/08/14 08:20:48;;;;;;;2.92;1.70;;;27.00;79.70;;;;;;2312448;55;21341;-72
2023/08/14 08:23:17;;;;;;;2.78;1.23;;;27.10;79.80;;;;;;2552913;54;20931;-72
2023/08/14 08:25:43;;;;;;;3.97;1.80;;;27.10;79.90;;;;;;2313406;55;21007;-73
2023/08/14 08:28:09;;;;;;;5.05;1.83;;;27.10;79.70;;;;;;2312992;55;21811;-74
2023/08/14 08:30:38;;;;;;;3.62;1.40;;;27.20;79.70;;;;;;2313417;55;20923;-73
2023/08/14 08:33:05;;;;;;;3.25;1.60;;;27.30;79.60;;;;;;2553007;54;20932;-73
2023/08/14 08:35:32;;;;;;;2.87;1.75;;;27.30;79.90;;;;;;2313568;55;21003;-71
2023/08/14 08:37:58;;;;;;;2.20;1.33;;;27.30;79.80;;;;;;2552950;54;20940;-72
2023/08/14 08:40:24;;;;;;;2.90;1.42;;;27.40;79.80;;;;;;2313276;55;20931;-73
2023/08/14 08:42:51;;;;;;;4.60;1.50;;;27.40;80.50;;;;;;2552940;54;20936;-73
2023/08/14 08:45:18;;;;;;;2.80;1.48;;;27.50;79.70;;;;;;2553185;54;21212;-73
2023/08/14 08:47:47;;;;;;;2.58;1.42;;;27.50;79.60;;;;;;2552295;54;21027;-72
2023/08/14 08:50:13;;;;;;;3.00;1.70;;;27.60;79.60;;;;;;2553098;54;21471;-71
2023/08/14 08:52:39;;;;;;;2.75;1.45;;;27.60;79.70;;;;;;2313450;55;20976;-73
2023/08/14 08:55:07;;;;;;;3.28;2.00;;;27.70;79.60;;;;;;2553110;54;21836;-73
2023/08/14 08:57:35;;;;;;;3.28;1.60;;;27.70;79.40;;;;;;2552785;54;21377;-72
2023/08/14 09:00:03;;;;;;;4.30;1.77;;;27.80;79.30;;;;;;2553016;54;21519;-72
2023/08/14 09:02:30;;;;;;;2.80;1.58;;;27.90;79.40;;;;;;2553283;54;20975;-71
2023/08/14 09:04:57;;;;;;;3.47;1.67;;;27.90;79.30;;;;;;2553190;54;20943;-73
2023/08/14 09:07:24;;;;;;;2.95;1.60;;;27.90;79.20;;;;;;2521754;54;21859;-73
2023/08/14 09:09:50;;;;;;;2.45;1.55;;;28.00;79.20;;;;;;2553769;54;20911;-72
2023/08/14 09:12:17;;;;;;;2.50;1.52;;;28.00;79.20;;;;;;2313257;55;21094;-73
2023/08/14 09:14:58;;;;;;;3.00;1.62;;;28.10;79.40;;;;;;2291766;55;21035;-72
2023/08/14 09:17:25;;;;;;;2.80;1.70;;;28.10;79.00;;;;;;2521171;54;21039;-72
2023/08/14 09:19:51;;;;;;;3.03;1.80;;;28.20;79.20;;;;;;2313808;55;21423;-72
2023/08/14 09:22:18;;;;;;;3.22;1.98;;;28.20;79.80;;;;;;2313296;55;21475;-73
2023/08/14 09:24:44;;;;;;;3.33;1.80;;;28.30;78.80;;;;;;2313441;55;21502;-72
2023/08/14 09:27:10;;;;;;;3.25;1.80;;;28.30;78.60;;;;;;2553337;54;20967;-72
2023/08/14 09:29:37;;;;;;;3.03;1.73;;;28.30;78.30;;;;;;2314170;55;21043;-72
2023/08/14 09:32:03;;;;;;;3.72;2.20;;;28.40;78.20;;;;;;2313520;55;20959;-72
2023/08/14 09:34:30;;;;;;;3.75;2.25;;;28.40;78.00;;;;;;2313453;55;20979;-72
2023/08/14 09:36:58;;;;;;;3.62;1.95;;;28.50;77.80;;;;;;2311318;55;20965;-72
2023/08/14 09:39:24;;;;;;;3.28;2.00;;;28.50;77.70;;;;;;2529395;54;20948;-72
2023/08/14 09:41:54;;;;;;;3.10;2.05;;;28.50;77.80;;;;;;2553714;54;21027;-72
2023/08/14 09:44:22;;;;;;;3.40;2.08;;;28.60;78.00;;;;;;2313349;55;20931;-73
2023/08/14 09:46:54;;;;;;;3.10;2.40;;;28.60;77.80;;;;;;2305412;55;20993;-72
2023/08/14 09:49:22;;;;;;;3.35;2.35;;;28.60;77.80;;;;;;2523206;54;21065;-72
2023/08/14 09:51:57;;;;;;;3.80;2.40;;;28.70;77.70;;;;;;2298858;55;20971;-72
2023/08/14 09:54:31;;;;;;;4.45;2.78;;;28.70;76.90;;;;;;2282192;55;21657;-72
2023/08/14 09:56:59;;;;;;;4.82;2.30;;;28.80;76.60;;;;;;2515260;55;20958;-72
2023/08/14 09:59:26;;;;;;;4.15;2.65;;;28.80;77.10;;;;;;2514886;55;21054;-71
2023/08/14 10:01:53;;;;;;;4.10;2.45;;;28.80;77.10;;;;;;2282717;56;20962;-72
2023/08/14 10:04:21;;;;;;;4.10;2.70;;;28.80;77.20;;;;;;2280705;56;21105;-71
2023/08/14 10:06:50;;;;;;;4.53;2.37;;;28.90;77.00;;;;;;2514309;55;21014;-71
2023/08/14 10:09:17;;;;;;;3.70;2.70;;;28.90;77.00;;;;;;2282537;56;21016;-71
2023/08/14 10:11:44;;;;;;;4.03;2.50;;;28.90;76.90;;;;;;2500761;55;21489;-71
2023/08/14 10:14:11;;;;;;;4.40;2.50;;;28.90;77.10;;;;;;2495810;54;21022;-69
2023/08/14 10:16:40;;;;;;;4.70;2.70;;;29.00;77.80;;;;;;2508645;55;21013;-71
2023/08/14 10:19:09;;;;;;;4.68;2.53;;;29.00;77.10;;;;;;2480599;55;20960;-71
2023/08/14 10:21:40;;;;;;;4.35;2.70;;;29.10;77.10;;;;;;2286521;55;20964;-71
2023/08/14 10:24:11;;;;;;;4.62;2.90;;;29.10;77.30;;;;;;2515339;55;20991;-71
2023/08/14 10:26:37;;;;;;;3.35;2.33;;;29.10;77.00;;;;;;2515369;55;20936;-71
2023/08/14 10:29:04;;;;;;;5.43;2.85;;;29.20;77.40;;;;;;2281887;56;21453;-71
2023/08/14 10:31:31;;;;;;;4.40;2.75;;;29.20;77.20;;;;;;2514770;55;21039;-70
2023/08/14 10:33:57;;;;;;;5.30;2.90;;;29.30;77.30;;;;;;2281829;55;21090;-71
2023/08/14 10:36:26;;;;;;;3.75;2.70;;;29.30;77.20;;;;;;2527111;54;20971;-71
2023/08/14 10:38:53;;;;;;;3.95;2.70;;;29.40;77.00;;;;;;2312868;55;21539;-71
2023/08/14 10:41:22;;;;;;;3.92;2.70;;;29.40;77.10;;;;;;2551699;54;20943;-71
2023/08/14 10:43:50;;;;;;;3.33;2.28;;;29.50;77.20;;;;;;2313390;55;21483;-71
2023/08/14 10:46:16;;;;;;;4.10;3.00;;;29.50;77.20;;;;;;2552273;54;20920;-72
2023/08/14 10:48:43;;;;;;;4.37;2.95;;;29.60;77.20;;;;;;2552074;54;20994;-72
2023/08/14 10:51:10;;;;;;;4.22;2.67;;;29.60;77.00;;;;;;2312833;55;20943;-70
2023/08/14 10:53:37;;;;;;;3.65;2.33;;;29.70;76.90;;;;;;2553007;54;20955;-72
2023/08/14 10:56:14;;;;;;;4.10;2.50;;;29.70;76.60;;;;;;2526909;54;20973;-71
2023/08/14 10:58:48;;;;;;;3.97;2.40;;;29.80;76.60;;;;;;2546698;54;21031;-71
2023/08/14 11:01:14;;;;;;;3.90;2.78;;;29.80;76.40;;;;;;2551381;54;21011;-69
2023/08/14 11:04:04;;;;;;;3.55;2.50;;;29.90;76.50;;;;;;2311769;55;21498;-71
2023/08/14 11:07:11;;;;;;;3.67;2.45;;;29.90;75.00;;;;;;2550949;54;21541;-70
2023/08/14 11:09:39;;;;;;;4.20;2.42;;;30.00;74.80;;;;;;2503201;55;21093;-71
2023/08/14 11:12:07;;;;;;;7.10;2.75;;;30.10;76.10;;;;;;2501819;54;20967;-70
2023/08/14 11:14:39;;;;;;;3.50;2.53;;;30.10;76.20;;;;;;2264398;56;21073;-71
2023/08/14 11:17:05;;;;;;;4.53;2.60;;;30.10;75.80;;;;;;2510050;54;21028;-71
2023/08/14 11:19:34;;;;;;;5.30;2.90;;;30.10;76.40;;;;;;2282204;56;20942;-71
2023/08/14 11:22:00;;;;;;;3.87;2.80;;;30.20;75.90;;;;;;2284609;56;25320;-71
2023/08/14 11:24:29;;;;;;;3.83;2.67;;;30.20;76.00;;;;;;2313122;55;21026;-71
2023/08/14 11:26:58;;;;;;;4.60;2.40;;;30.20;75.60;;;;;;2552673;54;20980;-71
2023/08/14 11:29:24;;;;;;;3.97;2.60;;;30.30;75.70;;;;;;2312526;55;21460;-70
2023/08/14 11:31:51;;;;;;;3.92;2.45;;;30.30;75.60;;;;;;2553112;54;20920;-72
2023/08/14 11:34:21;;;;;;;3.97;2.67;;;30.30;75.60;;;;;;2313189;55;20931;-71
2023/08/14 11:36:54;;;;;;;4.80;2.85;;;30.40;75.10;;;;;;2553178;54;21002;-70
2023/08/14 11:39:25;;;;;;;4.62;2.50;;;30.50;75.00;;;;;;2552566;54;21039;-71
2023/08/14 11:41:51;;;;;;;3.70;2.60;;;30.50;75.60;;;;;;2312886;55;21042;-71
2023/08/14 11:44:18;;;;;;;4.45;2.92;;;30.50;75.40;;;;;;2552877;54;20943;-72
2023/08/14 11:46:45;;;;;;;3.60;2.33;;;30.60;76.30;;;;;;2553205;54;20948;-71
2023/08/14 11:49:13;;;;;;;4.50;2.85;;;30.60;75.50;;;;;;2312975;55;21023;-72
2023/08/14 11:51:40;;;;;;;4.43;2.97;;;30.60;75.30;;;;;;2313311;55;20964;-71
2023/08/14 11:54:07;;;;;;;5.10;2.90;;;30.70;74.90;;;;;;2553917;54;21075;-71
2023/08/14 11:56:37;;;;;;;4.05;2.95;;;30.70;74.80;;;;;;2292776;55;21029;-71
2023/08/14 11:59:05;;;;;;;5.07;2.70;;;30.70;75.00;;;;;;2553272;54;20974;-72
2023/08/14 12:01:35;;;;;;;4.25;2.70;;;30.80;75.10;;;;;;2552859;54;21007;-71
2023/08/14 12:04:04;;;;;;;4.12;2.60;;;30.80;74.50;;;;;;2313629;55;20964;-71
2023/08/14 12:06:32;;;;;;;3.72;2.50;;;30.90;75.00;;;;;;2313086;55;21473;-71
2023/08/14 12:08:58;;;;;;;4.15;2.75;;;30.90;75.20;;;;;;2313389;55;21549;-71
2023/08/14 12:11:27;;;;;;;4.53;2.72;;;31.00;75.30;;;;;;2553075;54;20936;-71
2023/08/14 12:13:54;;;;;;;3.50;2.35;;;31.00;75.00;;;;;;2553307;54;21742;-71
2023/08/14 12:16:20;;;;;;;3.85;2.97;;;31.00;74.90;;;;;;2553056;54;20972;-70
2023/08/14 12:18:49;;;;;;;4.75;2.80;;;31.00;74.80;;;;;;2553197;54;20947;-71
2023/08/14 12:21:17;;;;;;;4.18;2.75;;;31.10;74.40;;;;;;2553287;54;20931;-70
2023/08/14 12:23:46;;;;;;;3.95;2.60;;;31.10;74.40;;;;;;2552754;54;21015;-71
2023/08/14 12:26:13;;;;;;;4.35;2.62;;;31.20;74.50;;;;;;2313735;55;20958;-73
2023/08/14 12:28:40;;;;;;;3.70;2.50;;;31.20;74.60;;;;;;2553095;54;21900;-72
2023/08/14 12:31:07;;;;;;;3.95;2.62;;;31.20;74.50;;;;;;2553340;54;20932;-72
2023/08/14 12:33:34;;;;;;;4.30;2.70;;;31.30;74.10;;;;;;2291556;55;21016;-70
2023/08/14 12:36:02;;;;;;;4.10;2.67;;;31.30;74.20;;;;;;2550920;54;20968;-71
2023/08/14 12:38:29;;;;;;;3.85;2.47;;;31.30;73.90;;;;;;2553474;54;21012;-72
2023/08/14 12:40:56;;;;;;;4.90;2.25;;;31.30;74.00;;;;;;2553954;54;21018;-71
2023/08/14 12:43:22;;;;;;;3.65;2.35;;;31.30;74.00;;;;;;2554325;54;21754;-71
2023/08/14 12:45:51;;;;;;;3.80;2.30;;;31.40;74.00;;;;;;2553702;54;21066;-70
2023/08/14 12:48:17;;;;;;;3.78;2.50;;;31.40;74.00;;;;;;2553202;54;20939;-71
2023/08/14 12:50:46;;;;;;;3.70;2.65;;;31.40;73.70;;;;;;2552751;54;20964;-71
2023/08/14 12:53:16;;;;;;;3.78;2.55;;;31.40;73.50;;;;;;2553429;54;20936;-70